ΕΜΥ, Εθνική Μετεωρολογική Υπηρεσία - Δελτία Καιρού, Προγνώσεις

ΑΕΡΟΝΑΥΤΙΛΙΑ

GREEK AIRPORTS CODES

TAF LGAV 201100Z 2012/2112 15015KT 9999 FEW018 SCT020 PROB40 TEMPO 2012/2112 5000 RA FEW018TCU SCT020 BKN070 PROB30 TEMPO 2012/2015 2000 TSRA SCT010 FEW018CB BKN020 OVC070 BECMG 2015/2017 16015G25KT=

EUROPEAN AIRPORTS CODES

EKCH 201250Z AUTO 04011KT 9999 OVC014/// 08/06 Q1019 BECMGBKN008=